sensor_id;sensor_type;location;lat;lon;timestamp;P1;durP1;ratioP1;P2;durP2;ratioP2
47778;SDS011;33538;48.432;11.350;2023-07-30T00:02:21;2.83;;;1.60;;
47778;SDS011;33538;48.432;11.350;2023-07-30T00:04:47;2.33;;;1.48;;
47778;SDS011;33538;48.432;11.350;2023-07-30T00:07:14;1.98;;;1.20;;
47778;SDS011;33538;48.432;11.350;2023-07-30T00:09:42;2.55;;;1.45;;
47778;SDS011;33538;48.432;11.350;2023-07-30T00:12:09;2.38;;;1.45;;
47778;SDS011;33538;48.432;11.350;2023-07-30T00:14:36;1.92;;;1.45;;
47778;SDS011;33538;48.432;11.350;2023-07-30T00:17:03;2.65;;;1.20;;
47778;SDS011;33538;48.432;11.350;2023-07-30T00:19:30;2.47;;;1.58;;
47778;SDS011;33538;48.432;11.350;2023-07-30T00:21:57;3.70;;;1.77;;
47778;SDS011;33538;48.432;11.350;2023-07-30T00:24:24;1.95;;;1.45;;
47778;SDS011;33538;48.432;11.350;2023-07-30T00:26:52;1.65;;;1.17;;
47778;SDS011;33538;48.432;11.350;2023-07-30T00:29:19;2.65;;;1.40;;
47778;SDS011;33538;48.432;11.350;2023-07-30T00:31:45;2.03;;;1.27;;
47778;SDS011;33538;48.432;11.350;2023-07-30T00:34:12;3.42;;;1.65;;
47778;SDS011;33538;48.432;11.350;2023-07-30T00:36:39;2.20;;;1.52;;
47778;SDS011;33538;48.432;11.350;2023-07-30T00:39:06;1.73;;;1.40;;
47778;SDS011;33538;48.432;11.350;2023-07-30T00:41:33;2.08;;;1.50;;
47778;SDS011;33538;48.432;11.350;2023-07-30T00:44:01;2.13;;;1.50;;
47778;SDS011;33538;48.432;11.350;2023-07-30T00:46:28;2.83;;;1.65;;
47778;SDS011;33538;48.432;11.350;2023-07-30T00:48:55;3.22;;;1.38;;
47778;SDS011;33538;48.432;11.350;2023-07-30T00:51:21;2.67;;;1.23;;
47778;SDS011;33538;48.432;11.350;2023-07-30T00:53:50;1.45;;;1.15;;
47778;SDS011;33538;48.432;11.350;2023-07-30T00:56:17;2.25;;;1.40;;
47778;SDS011;33538;48.432;11.350;2023-07-30T00:58:43;1.80;;;1.35;;
47778;SDS011;33538;48.432;11.350;2023-07-30T01:01:14;1.67;;;1.33;;
47778;SDS011;33538;48.432;11.350;2023-07-30T01:03:41;2.15;;;1.30;;
47778;SDS011;33538;48.432;11.350;2023-07-30T01:06:08;2.47;;;1.40;;
47778;SDS011;33538;48.432;11.350;2023-07-30T01:08:35;2.80;;;1.25;;
47778;SDS011;33538;48.432;11.350;2023-07-30T01:11:02;1.55;;;1.13;;
47778;SDS011;33538;48.432;11.350;2023-07-30T01:13:29;2.22;;;1.45;;
47778;SDS011;33538;48.432;11.350;2023-07-30T01:15:58;2.08;;;1.40;;
47778;SDS011;33538;48.432;11.350;2023-07-30T01:18:26;2.45;;;1.20;;
47778;SDS011;33538;48.432;11.350;2023-07-30T01:20:54;2.78;;;1.25;;
47778;SDS011;33538;48.432;11.350;2023-07-30T01:23:24;1.75;;;1.52;;
47778;SDS011;33538;48.432;11.350;2023-07-30T01:25:51;2.03;;;1.10;;
47778;SDS011;33538;48.432;11.350;2023-07-30T01:28:24;2.13;;;1.53;;
47778;SDS011;33538;48.432;11.350;2023-07-30T01:30:52;2.22;;;1.60;;
47778;SDS011;33538;48.432;11.350;2023-07-30T01:33:20;2.72;;;1.17;;
47778;SDS011;33538;48.432;11.350;2023-07-30T01:35:47;2.40;;;1.40;;
47778;SDS011;33538;48.432;11.350;2023-07-30T01:38:16;1.48;;;1.20;;
47778;SDS011;33538;48.432;11.350;2023-07-30T01:40:43;1.83;;;1.40;;
47778;SDS011;33538;48.432;11.350;2023-07-30T01:43:10;1.70;;;1.30;;
47778;SDS011;33538;48.432;11.350;2023-07-30T01:45:37;1.92;;;1.20;;
47778;SDS011;33538;48.432;11.350;2023-07-30T01:48:04;2.05;;;1.52;;
47778;SDS011;33538;48.432;11.350;2023-07-30T01:50:30;2.28;;;1.20;;
47778;SDS011;33538;48.432;11.350;2023-07-30T01:52:57;3.92;;;1.50;;
47778;SDS011;33538;48.432;11.350;2023-07-30T01:55:25;2.40;;;1.23;;
47778;SDS011;33538;48.432;11.350;2023-07-30T01:57:52;2.20;;;1.40;;
47778;SDS011;33538;48.432;11.350;2023-07-30T02:00:19;1.45;;;0.98;;
47778;SDS011;33538;48.432;11.350;2023-07-30T02:02:46;3.03;;;1.17;;
47778;SDS011;33538;48.432;11.350;2023-07-30T02:05:13;2.53;;;1.50;;
47778;SDS011;33538;48.432;11.350;2023-07-30T02:07:40;4.65;;;1.23;;
47778;SDS011;33538;48.432;11.350;2023-07-30T02:10:07;1.45;;;1.00;;
47778;SDS011;33538;48.432;11.350;2023-07-30T02:12:35;2.25;;;1.02;;
47778;SDS011;33538;48.432;11.350;2023-07-30T02:15:02;1.63;;;1.25;;
47778;SDS011;33538;48.432;11.350;2023-07-30T02:17:29;2.25;;;1.48;;
47778;SDS011;33538;48.432;11.350;2023-07-30T02:19:56;2.85;;;1.67;;
47778;SDS011;33538;48.432;11.350;2023-07-30T02:22:23;2.92;;;1.48;;
47778;SDS011;33538;48.432;11.350;2023-07-30T02:24:50;2.22;;;1.52;;
47778;SDS011;33538;48.432;11.350;2023-07-30T02:27:17;1.95;;;1.23;;
47778;SDS011;33538;48.432;11.350;2023-07-30T02:29:45;1.67;;;1.20;;
47778;SDS011;33538;48.432;11.350;2023-07-30T02:32:13;2.20;;;1.27;;
47778;SDS011;33538;48.432;11.350;2023-07-30T02:34:40;1.35;;;1.13;;
47778;SDS011;33538;48.432;11.350;2023-07-30T02:37:07;1.52;;;1.20;;
47778;SDS011;33538;48.432;11.350;2023-07-30T02:39:33;1.50;;;1.20;;
47778;SDS011;33538;48.432;11.350;2023-07-30T02:42:00;1.63;;;1.27;;
47778;SDS011;33538;48.432;11.350;2023-07-30T02:44:27;2.00;;;1.20;;
47778;SDS011;33538;48.432;11.350;2023-07-30T02:46:55;1.13;;;0.80;;
47778;SDS011;33538;48.432;11.350;2023-07-30T02:49:22;1.30;;;0.98;;
47778;SDS011;33538;48.432;11.350;2023-07-30T02:51:49;2.53;;;1.30;;
47778;SDS011;33538;48.432;11.350;2023-07-30T02:54:15;1.42;;;0.90;;
47778;SDS011;33538;48.432;11.350;2023-07-30T02:56:42;1.83;;;1.00;;
47778;SDS011;33538;48.432;11.350;2023-07-30T02:59:09;0.80;;;0.80;;
47778;SDS011;33538;48.432;11.350;2023-07-30T03:01:36;1.15;;;0.90;;
47778;SDS011;33538;48.432;11.350;2023-07-30T03:04:05;1.17;;;0.95;;
47778;SDS011;33538;48.432;11.350;2023-07-30T03:06:31;1.33;;;1.10;;
47778;SDS011;33538;48.432;11.350;2023-07-30T03:08:58;1.25;;;0.60;;
47778;SDS011;33538;48.432;11.350;2023-07-30T03:11:25;3.22;;;1.00;;
47778;SDS011;33538;48.432;11.350;2023-07-30T03:13:52;0.90;;;0.80;;
47778;SDS011;33538;48.432;11.350;2023-07-30T03:16:18;1.38;;;0.77;;
47778;SDS011;33538;48.432;11.350;2023-07-30T03:18:45;2.95;;;0.93;;
47778;SDS011;33538;48.432;11.350;2023-07-30T03:21:13;1.05;;;0.60;;
47778;SDS011;33538;48.432;11.350;2023-07-30T03:23:40;1.15;;;0.70;;
47778;SDS011;33538;48.432;11.350;2023-07-30T03:26:07;4.22;;;0.70;;
47778;SDS011;33538;48.432;11.350;2023-07-30T03:28:34;2.33;;;0.90;;
47778;SDS011;33538;48.432;11.350;2023-07-30T03:31:03;1.00;;;0.70;;
47778;SDS011;33538;48.432;11.350;2023-07-30T03:33:30;5.78;;;1.13;;
47778;SDS011;33538;48.432;11.350;2023-07-30T03:35:57;1.38;;;0.73;;
47778;SDS011;33538;48.432;11.350;2023-07-30T03:38:25;1.40;;;0.73;;
47778;SDS011;33538;48.432;11.350;2023-07-30T03:40:52;4.40;;;1.20;;
47778;SDS011;33538;48.432;11.350;2023-07-30T03:43:19;2.75;;;0.93;;
47778;SDS011;33538;48.432;11.350;2023-07-30T03:45:46;1.30;;;0.85;;
47778;SDS011;33538;48.432;11.350;2023-07-30T03:48:12;1.75;;;0.90;;
47778;SDS011;33538;48.432;11.350;2023-07-30T03:50:39;2.63;;;0.90;;
47778;SDS011;33538;48.432;11.350;2023-07-30T03:53:06;1.92;;;0.95;;
47778;SDS011;33538;48.432;11.350;2023-07-30T03:55:34;5.30;;;0.77;;
47778;SDS011;33538;48.432;11.350;2023-07-30T03:58:01;3.17;;;1.08;;
47778;SDS011;33538;48.432;11.350;2023-07-30T04:00:28;1.73;;;0.80;;
47778;SDS011;33538;48.432;11.350;2023-07-30T04:02:55;1.52;;;0.85;;
47778;SDS011;33538;48.432;11.350;2023-07-30T04:05:21;3.30;;;1.08;;
47778;SDS011;33538;48.432;11.350;2023-07-30T04:07:48;3.13;;;1.25;;
47778;SDS011;33538;48.432;11.350;2023-07-30T04:10:15;1.88;;;0.80;;
47778;SDS011;33538;48.432;11.350;2023-07-30T04:12:44;1.25;;;0.93;;
47778;SDS011;33538;48.432;11.350;2023-07-30T04:15:11;2.67;;;1.00;;
47778;SDS011;33538;48.432;11.350;2023-07-30T04:17:38;1.40;;;0.80;;
47778;SDS011;33538;48.432;11.350;2023-07-30T04:20:05;3.13;;;1.30;;
47778;SDS011;33538;48.432;11.350;2023-07-30T04:22:32;2.05;;;1.17;;
47778;SDS011;33538;48.432;11.350;2023-07-30T04:24:59;2.67;;;0.85;;
47778;SDS011;33538;48.432;11.350;2023-07-30T04:27:26;2.40;;;1.27;;
47778;SDS011;33538;48.432;11.350;2023-07-30T04:29:58;2.63;;;1.52;;
47778;SDS011;33538;48.432;11.350;2023-07-30T04:32:25;2.67;;;1.23;;
47778;SDS011;33538;48.432;11.350;2023-07-30T04:34:52;1.48;;;1.00;;
47778;SDS011;33538;48.432;11.350;2023-07-30T04:37:18;4.18;;;1.27;;
47778;SDS011;33538;48.432;11.350;2023-07-30T04:39:45;2.17;;;1.10;;
47778;SDS011;33538;48.432;11.350;2023-07-30T04:42:12;1.63;;;1.08;;
47778;SDS011;33538;48.432;11.350;2023-07-30T04:44:39;4.78;;;1.23;;
47778;SDS011;33538;48.432;11.350;2023-07-30T04:47:07;2.72;;;1.38;;
47778;SDS011;33538;48.432;11.350;2023-07-30T04:49:34;3.90;;;1.50;;
47778;SDS011;33538;48.432;11.350;2023-07-30T04:52:01;3.65;;;1.40;;
47778;SDS011;33538;48.432;11.350;2023-07-30T04:54:28;2.58;;;1.48;;
47778;SDS011;33538;48.432;11.350;2023-07-30T04:56:54;3.28;;;1.48;;
47778;SDS011;33538;48.432;11.350;2023-07-30T04:59:21;2.58;;;1.60;;
47778;SDS011;33538;48.432;11.350;2023-07-30T05:01:48;3.45;;;1.73;;
47778;SDS011;33538;48.432;11.350;2023-07-30T05:04:16;2.78;;;1.70;;
47778;SDS011;33538;48.432;11.350;2023-07-30T05:06:43;1.60;;;1.40;;
47778;SDS011;33538;48.432;11.350;2023-07-30T05:09:10;2.08;;;1.60;;
47778;SDS011;33538;48.432;11.350;2023-07-30T05:11:37;2.63;;;1.73;;
47778;SDS011;33538;48.432;11.350;2023-07-30T05:14:04;2.63;;;1.33;;
47778;SDS011;33538;48.432;11.350;2023-07-30T05:16:31;2.72;;;1.67;;
47778;SDS011;33538;48.432;11.350;2023-07-30T05:18:58;3.40;;;1.45;;
47778;SDS011;33538;48.432;11.350;2023-07-30T05:21:26;2.97;;;1.90;;
47778;SDS011;33538;48.432;11.350;2023-07-30T05:23:53;2.30;;;1.50;;
47778;SDS011;33538;48.432;11.350;2023-07-30T05:26:20;2.35;;;1.90;;
47778;SDS011;33538;48.432;11.350;2023-07-30T05:28:47;3.08;;;1.42;;
47778;SDS011;33538;48.432;11.350;2023-07-30T05:31:13;4.85;;;1.70;;
47778;SDS011;33538;48.432;11.350;2023-07-30T05:33:40;4.05;;;1.77;;
47778;SDS011;33538;48.432;11.350;2023-07-30T05:36:07;3.80;;;1.70;;
47778;SDS011;33538;48.432;11.350;2023-07-30T05:38:35;3.28;;;1.98;;
47778;SDS011;33538;48.432;11.350;2023-07-30T05:41:02;2.30;;;1.75;;
47778;SDS011;33538;48.432;11.350;2023-07-30T05:43:29;2.70;;;1.70;;
47778;SDS011;33538;48.432;11.350;2023-07-30T05:45:55;2.55;;;1.63;;
47778;SDS011;33538;48.432;11.350;2023-07-30T05:48:22;2.95;;;1.60;;
47778;SDS011;33538;48.432;11.350;2023-07-30T05:50:49;2.17;;;1.65;;
47778;SDS011;33538;48.432;11.350;2023-07-30T05:53:16;2.40;;;1.58;;
47778;SDS011;33538;48.432;11.350;2023-07-30T05:55:44;2.88;;;1.70;;
47778;SDS011;33538;48.432;11.350;2023-07-30T05:58:11;2.67;;;1.60;;
47778;SDS011;33538;48.432;11.350;2023-07-30T06:00:37;2.65;;;1.52;;
47778;SDS011;33538;48.432;11.350;2023-07-30T06:03:04;3.17;;;1.90;;
47778;SDS011;33538;48.432;11.350;2023-07-30T06:05:31;2.97;;;1.75;;
47778;SDS011;33538;48.432;11.350;2023-07-30T06:07:58;1.95;;;1.42;;
47778;SDS011;33538;48.432;11.350;2023-07-30T06:10:25;3.15;;;1.70;;
47778;SDS011;33538;48.432;11.350;2023-07-30T06:12:53;2.00;;;1.55;;
47778;SDS011;33538;48.432;11.350;2023-07-30T06:15:19;3.28;;;1.65;;
47778;SDS011;33538;48.432;11.350;2023-07-30T06:17:46;1.75;;;1.25;;
47778;SDS011;33538;48.432;11.350;2023-07-30T06:20:13;3.53;;;1.67;;
47778;SDS011;33538;48.432;11.350;2023-07-30T06:22:40;5.57;;;1.65;;
47778;SDS011;33538;48.432;11.350;2023-07-30T06:25:07;2.03;;;1.50;;
47778;SDS011;33538;48.432;11.350;2023-07-30T06:27:34;4.28;;;2.00;;
47778;SDS011;33538;48.432;11.350;2023-07-30T06:30:02;2.33;;;1.80;;
47778;SDS011;33538;48.432;11.350;2023-07-30T06:32:29;2.08;;;1.75;;
47778;SDS011;33538;48.432;11.350;2023-07-30T06:34:56;2.88;;;1.77;;
47778;SDS011;33538;48.432;11.350;2023-07-30T06:37:23;2.50;;;1.88;;
47778;SDS011;33538;48.432;11.350;2023-07-30T06:39:49;3.35;;;1.80;;
47778;SDS011;33538;48.432;11.350;2023-07-30T06:42:16;2.58;;;1.92;;
47778;SDS011;33538;48.432;11.350;2023-07-30T06:44:43;3.22;;;1.65;;
47778;SDS011;33538;48.432;11.350;2023-07-30T06:47:11;3.15;;;1.88;;
47778;SDS011;33538;48.432;11.350;2023-07-30T06:49:38;4.10;;;1.80;;
47778;SDS011;33538;48.432;11.350;2023-07-30T06:52:05;7.03;;;1.58;;
47778;SDS011;33538;48.432;11.350;2023-07-30T06:54:32;2.40;;;1.70;;
47778;SDS011;33538;48.432;11.350;2023-07-30T06:56:59;2.10;;;1.55;;
47778;SDS011;33538;48.432;11.350;2023-07-30T06:59:26;2.95;;;1.67;;
47778;SDS011;33538;48.432;11.350;2023-07-30T07:01:53;2.33;;;1.40;;
47778;SDS011;33538;48.432;11.350;2023-07-30T07:04:21;2.85;;;1.73;;
47778;SDS011;33538;48.432;11.350;2023-07-30T07:06:48;2.53;;;1.67;;
47778;SDS011;33538;48.432;11.350;2023-07-30T07:09:15;1.83;;;1.40;;
47778;SDS011;33538;48.432;11.350;2023-07-30T07:11:41;3.42;;;1.55;;
47778;SDS011;33538;48.432;11.350;2023-07-30T07:14:08;2.20;;;1.63;;
47778;SDS011;33538;48.432;11.350;2023-07-30T07:16:35;2.90;;;1.50;;
47778;SDS011;33538;48.432;11.350;2023-07-30T07:19:02;1.85;;;1.33;;
47778;SDS011;33538;48.432;11.350;2023-07-30T07:21:30;5.15;;;1.75;;
47778;SDS011;33538;48.432;11.350;2023-07-30T07:23:57;2.72;;;1.70;;
47778;SDS011;33538;48.432;11.350;2023-07-30T07:26:24;2.17;;;1.60;;
47778;SDS011;33538;48.432;11.350;2023-07-30T07:28:51;1.90;;;1.70;;
47778;SDS011;33538;48.432;11.350;2023-07-30T07:31:17;2.72;;;1.80;;
47778;SDS011;33538;48.432;11.350;2023-07-30T07:33:44;4.97;;;1.60;;
47778;SDS011;33538;48.432;11.350;2023-07-30T07:36:11;3.20;;;1.50;;
47778;SDS011;33538;48.432;11.350;2023-07-30T07:38:39;2.03;;;1.50;;
47778;SDS011;33538;48.432;11.350;2023-07-30T07:41:06;2.10;;;1.50;;
47778;SDS011;33538;48.432;11.350;2023-07-30T07:43:33;2.30;;;1.60;;
47778;SDS011;33538;48.432;11.350;2023-07-30T07:45:59;1.95;;;1.55;;
47778;SDS011;33538;48.432;11.350;2023-07-30T07:48:26;1.92;;;1.20;;
47778;SDS011;33538;48.432;11.350;2023-07-30T07:50:53;1.83;;;1.10;;
47778;SDS011;33538;48.432;11.350;2023-07-30T07:53:20;2.90;;;1.63;;
47778;SDS011;33538;48.432;11.350;2023-07-30T07:55:48;2.63;;;1.50;;
47778;SDS011;33538;48.432;11.350;2023-07-30T07:58:15;2.42;;;1.65;;
47778;SDS011;33538;48.432;11.350;2023-07-30T08:00:42;2.33;;;1.90;;
47778;SDS011;33538;48.432;11.350;2023-07-30T08:03:08;1.73;;;1.25;;
47778;SDS011;33538;48.432;11.350;2023-07-30T08:05:35;2.13;;;1.55;;
47778;SDS011;33538;48.432;11.350;2023-07-30T08:08:02;2.30;;;1.85;;
47778;SDS011;33538;48.432;11.350;2023-07-30T08:10:29;2.33;;;1.85;;
47778;SDS011;33538;48.432;11.350;2023-07-30T08:12:57;1.98;;;1.55;;
47778;SDS011;33538;48.432;11.350;2023-07-30T08:15:24;2.60;;;1.50;;
47778;SDS011;33538;48.432;11.350;2023-07-30T08:17:51;2.75;;;1.85;;
47778;SDS011;33538;48.432;11.350;2023-07-30T08:20:18;2.92;;;1.60;;
47778;SDS011;33538;48.432;11.350;2023-07-30T08:22:44;2.67;;;1.50;;
47778;SDS011;33538;48.432;11.350;2023-07-30T08:25:11;4.22;;;1.58;;
47778;SDS011;33538;48.432;11.350;2023-07-30T08:27:38;2.35;;;1.45;;
47778;SDS011;33538;48.432;11.350;2023-07-30T08:30:07;2.92;;;1.60;;
47778;SDS011;33538;48.432;11.350;2023-07-30T08:32:34;1.85;;;1.52;;
47778;SDS011;33538;48.432;11.350;2023-07-30T08:35:05;3.65;;;1.58;;
47778;SDS011;33538;48.432;11.350;2023-07-30T08:37:33;2.20;;;1.50;;
47778;SDS011;33538;48.432;11.350;2023-07-30T08:40:00;1.33;;;1.20;;
47778;SDS011;33538;48.432;11.350;2023-07-30T08:42:26;2.65;;;1.73;;
47778;SDS011;33538;48.432;11.350;2023-07-30T08:44:53;2.42;;;1.63;;
47778;SDS011;33538;48.432;11.350;2023-07-30T08:47:21;1.75;;;1.30;;
47778;SDS011;33538;48.432;11.350;2023-07-30T08:49:48;2.13;;;1.52;;
47778;SDS011;33538;48.432;11.350;2023-07-30T08:52:15;3.05;;;1.55;;
47778;SDS011;33538;48.432;11.350;2023-07-30T08:54:43;1.95;;;1.27;;
47778;SDS011;33538;48.432;11.350;2023-07-30T08:57:15;1.75;;;1.15;;
47778;SDS011;33538;48.432;11.350;2023-07-30T08:59:45;1.83;;;1.40;;
47778;SDS011;33538;48.432;11.350;2023-07-30T09:02:18;1.70;;;1.40;;
47778;SDS011;33538;48.432;11.350;2023-07-30T09:04:49;3.60;;;1.30;;
47778;SDS011;33538;48.432;11.350;2023-07-30T09:07:19;2.08;;;1.38;;
47778;SDS011;33538;48.432;11.350;2023-07-30T09:09:46;1.55;;;1.25;;
47778;SDS011;33538;48.432;11.350;2023-07-30T09:12:13;1.35;;;1.00;;
47778;SDS011;33538;48.432;11.350;2023-07-30T09:14:40;1.38;;;1.10;;
47778;SDS011;33538;48.432;11.350;2023-07-30T09:17:07;1.73;;;1.10;;
47778;SDS011;33538;48.432;11.350;2023-07-30T09:19:34;1.25;;;0.95;;
47778;SDS011;33538;48.432;11.350;2023-07-30T09:22:05;3.53;;;1.80;;
47778;SDS011;33538;48.432;11.350;2023-07-30T09:24:32;2.22;;;1.40;;
47778;SDS011;33538;48.432;11.350;2023-07-30T09:27:01;3.63;;;1.38;;
47778;SDS011;33538;48.432;11.350;2023-07-30T09:29:29;4.13;;;1.40;;
47778;SDS011;33538;48.432;11.350;2023-07-30T09:31:55;2.30;;;1.30;;
47778;SDS011;33538;48.432;11.350;2023-07-30T09:34:23;1.63;;;1.20;;
47778;SDS011;33538;48.432;11.350;2023-07-30T09:36:51;1.27;;;0.90;;
47778;SDS011;33538;48.432;11.350;2023-07-30T09:39:21;2.65;;;1.80;;
47778;SDS011;33538;48.432;11.350;2023-07-30T09:41:49;1.77;;;1.25;;
47778;SDS011;33538;48.432;11.350;2023-07-30T09:44:17;1.63;;;1.23;;
47778;SDS011;33538;48.432;11.350;2023-07-30T09:46:45;2.15;;;1.15;;
47778;SDS011;33538;48.432;11.350;2023-07-30T09:49:13;3.15;;;1.73;;
47778;SDS011;33538;48.432;11.350;2023-07-30T09:51:40;1.30;;;1.17;;
47778;SDS011;33538;48.432;11.350;2023-07-30T09:54:07;1.40;;;1.23;;
47778;SDS011;33538;48.432;11.350;2023-07-30T09:56:36;1.60;;;1.13;;
47778;SDS011;33538;48.432;11.350;2023-07-30T09:59:03;1.95;;;1.40;;
47778;SDS011;33538;48.432;11.350;2023-07-30T10:01:31;1.50;;;1.02;;
47778;SDS011;33538;48.432;11.350;2023-07-30T10:03:59;1.15;;;0.90;;
47778;SDS011;33538;48.432;11.350;2023-07-30T10:06:32;1.20;;;1.05;;
47778;SDS011;33538;48.432;11.350;2023-07-30T10:09:01;1.95;;;1.35;;
47778;SDS011;33538;48.432;11.350;2023-07-30T10:11:28;1.55;;;1.08;;
47778;SDS011;33538;48.432;11.350;2023-07-30T10:13:57;2.08;;;1.20;;
47778;SDS011;33538;48.432;11.350;2023-07-30T10:16:27;2.10;;;1.23;;
47778;SDS011;33538;48.432;11.350;2023-07-30T10:18:55;1.92;;;1.10;;
47778;SDS011;33538;48.432;11.350;2023-07-30T10:21:23;1.73;;;1.05;;
47778;SDS011;33538;48.432;11.350;2023-07-30T10:23:57;1.95;;;1.17;;
47778;SDS011;33538;48.432;11.350;2023-07-30T10:26:28;1.73;;;1.45;;
47778;SDS011;33538;48.432;11.350;2023-07-30T10:29:13;1.83;;;1.05;;
47778;SDS011;33538;48.432;11.350;2023-07-30T10:31:41;1.67;;;1.13;;
47778;SDS011;33538;48.432;11.350;2023-07-30T10:34:10;1.85;;;1.27;;
47778;SDS011;33538;48.432;11.350;2023-07-30T10:36:40;1.35;;;1.00;;
47778;SDS011;33538;48.432;11.350;2023-07-30T10:39:12;1.38;;;0.98;;
47778;SDS011;33538;48.432;11.350;2023-07-30T10:41:40;1.20;;;1.05;;
47778;SDS011;33538;48.432;11.350;2023-07-30T10:44:18;1.45;;;0.80;;
47778;SDS011;33538;48.432;11.350;2023-07-30T10:46:48;1.08;;;0.88;;
47778;SDS011;33538;48.432;11.350;2023-07-30T10:49:15;0.93;;;0.80;;
47778;SDS011;33538;48.432;11.350;2023-07-30T10:51:41;0.77;;;0.70;;
47778;SDS011;33538;48.432;11.350;2023-07-30T10:54:08;2.25;;;0.70;;
47778;SDS011;33538;48.432;11.350;2023-07-30T10:56:35;1.92;;;1.00;;
47778;SDS011;33538;48.432;11.350;2023-07-30T10:59:03;1.30;;;0.98;;
47778;SDS011;33538;48.432;11.350;2023-07-30T11:01:35;1.63;;;1.00;;
47778;SDS011;33538;48.432;11.350;2023-07-30T11:04:05;1.17;;;0.88;;
47778;SDS011;33538;48.432;11.350;2023-07-30T11:06:33;2.88;;;1.13;;
47778;SDS011;33538;48.432;11.350;2023-07-30T11:09:00;1.67;;;1.10;;
47778;SDS011;33538;48.432;11.350;2023-07-30T11:11:26;1.15;;;0.73;;
47778;SDS011;33538;48.432;11.350;2023-07-30T11:13:53;1.75;;;0.98;;
47778;SDS011;33538;48.432;11.350;2023-07-30T11:16:20;2.00;;;1.00;;
47778;SDS011;33538;48.432;11.350;2023-07-30T11:18:48;1.33;;;1.00;;
47778;SDS011;33538;48.432;11.350;2023-07-30T11:21:16;1.38;;;1.10;;
47778;SDS011;33538;48.432;11.350;2023-07-30T11:23:45;1.35;;;0.85;;
47778;SDS011;33538;48.432;11.350;2023-07-30T11:26:15;1.58;;;0.90;;
47778;SDS011;33538;48.432;11.350;2023-07-30T11:28:43;2.25;;;1.08;;
47778;SDS011;33538;48.432;11.350;2023-07-30T11:31:11;1.45;;;0.90;;
47778;SDS011;33538;48.432;11.350;2023-07-30T11:33:40;2.00;;;1.40;;
47778;SDS011;33538;48.432;11.350;2023-07-30T11:36:10;1.15;;;1.00;;
47778;SDS011;33538;48.432;11.350;2023-07-30T11:38:38;2.88;;;0.80;;
47778;SDS011;33538;48.432;11.350;2023-07-30T11:41:06;2.08;;;0.95;;
47778;SDS011;33538;48.432;11.350;2023-07-30T11:43:39;3.85;;;1.15;;
47778;SDS011;33538;48.432;11.350;2023-07-30T11:46:08;1.75;;;0.98;;
47778;SDS011;33538;48.432;11.350;2023-07-30T11:48:39;1.48;;;1.02;;
47778;SDS011;33538;48.432;11.350;2023-07-30T11:51:06;2.25;;;1.13;;
47778;SDS011;33538;48.432;11.350;2023-07-30T11:53:46;1.27;;;0.95;;
47778;SDS011;33538;48.432;11.350;2023-07-30T11:56:17;2.42;;;1.30;;
47778;SDS011;33538;48.432;11.350;2023-07-30T11:58:45;1.42;;;1.00;;
47778;SDS011;33538;48.432;11.350;2023-07-30T12:01:12;3.53;;;1.17;;
47778;SDS011;33538;48.432;11.350;2023-07-30T12:03:39;1.65;;;1.13;;
47778;SDS011;33538;48.432;11.350;2023-07-30T12:06:06;1.85;;;0.90;;
47778;SDS011;33538;48.432;11.350;2023-07-30T12:08:35;2.38;;;1.30;;
47778;SDS011;33538;48.432;11.350;2023-07-30T12:11:03;1.63;;;1.02;;
47778;SDS011;33538;48.432;11.350;2023-07-30T12:13:30;1.33;;;0.98;;
47778;SDS011;33538;48.432;11.350;2023-07-30T12:15:58;1.52;;;1.23;;
47778;SDS011;33538;48.432;11.350;2023-07-30T12:18:25;2.58;;;1.25;;
47778;SDS011;33538;48.432;11.350;2023-07-30T12:20:53;1.08;;;0.98;;
47778;SDS011;33538;48.432;11.350;2023-07-30T12:23:20;1.80;;;1.20;;
47778;SDS011;33538;48.432;11.350;2023-07-30T12:25:47;1.65;;;1.10;;
47778;SDS011;33538;48.432;11.350;2023-07-30T12:28:15;2.03;;;1.10;;
47778;SDS011;33538;48.432;11.350;2023-07-30T12:30:42;1.63;;;1.20;;
47778;SDS011;33538;48.432;11.350;2023-07-30T12:33:09;1.33;;;0.93;;
47778;SDS011;33538;48.432;11.350;2023-07-30T12:35:36;1.95;;;1.10;;
47778;SDS011;33538;48.432;11.350;2023-07-30T12:38:02;2.13;;;1.45;;
47778;SDS011;33538;48.432;11.350;2023-07-30T12:40:29;3.83;;;1.30;;
47778;SDS011;33538;48.432;11.350;2023-07-30T12:42:56;2.00;;;1.33;;
47778;SDS011;33538;48.432;11.350;2023-07-30T12:45:24;1.63;;;1.30;;
47778;SDS011;33538;48.432;11.350;2023-07-30T12:47:51;1.50;;;1.02;;
47778;SDS011;33538;48.432;11.350;2023-07-30T12:50:18;1.60;;;1.20;;
47778;SDS011;33538;48.432;11.350;2023-07-30T12:52:46;1.67;;;1.27;;
47778;SDS011;33538;48.432;11.350;2023-07-30T12:55:12;1.45;;;1.02;;
47778;SDS011;33538;48.432;11.350;2023-07-30T12:57:39;2.95;;;1.38;;
47778;SDS011;33538;48.432;11.350;2023-07-30T13:00:06;1.20;;;1.10;;
47778;SDS011;33538;48.432;11.350;2023-07-30T13:02:35;1.65;;;1.15;;
47778;SDS011;33538;48.432;11.350;2023-07-30T13:05:02;3.20;;;2.20;;
47778;SDS011;33538;48.432;11.350;2023-07-30T13:07:29;2.53;;;1.70;;
47778;SDS011;33538;48.432;11.350;2023-07-30T13:10:03;5.43;;;1.80;;
47778;SDS011;33538;48.432;11.350;2023-07-30T13:12:31;2.20;;;1.30;;
47778;SDS011;33538;48.432;11.350;2023-07-30T13:14:58;1.52;;;1.17;;
47778;SDS011;33538;48.432;11.350;2023-07-30T13:17:25;1.40;;;1.02;;
47778;SDS011;33538;48.432;11.350;2023-07-30T13:19:53;1.58;;;1.00;;
47778;SDS011;33538;48.432;11.350;2023-07-30T13:22:20;1.30;;;1.00;;
47778;SDS011;33538;48.432;11.350;2023-07-30T13:24:47;2.17;;;1.25;;
47778;SDS011;33538;48.432;11.350;2023-07-30T13:27:13;2.92;;;1.30;;
47778;SDS011;33538;48.432;11.350;2023-07-30T13:29:40;1.35;;;0.88;;
47778;SDS011;33538;48.432;11.350;2023-07-30T13:32:07;1.45;;;1.23;;
47778;SDS011;33538;48.432;11.350;2023-07-30T13:34:34;1.15;;;1.05;;
47778;SDS011;33538;48.432;11.350;2023-07-30T13:37:02;0.98;;;0.88;;
47778;SDS011;33538;48.432;11.350;2023-07-30T13:39:29;1.60;;;0.90;;
47778;SDS011;33538;48.432;11.350;2023-07-30T13:41:56;1.67;;;1.20;;
47778;SDS011;33538;48.432;11.350;2023-07-30T13:44:23;2.50;;;1.35;;
47778;SDS011;33538;48.432;11.350;2023-07-30T13:46:50;1.63;;;1.30;;
47778;SDS011;33538;48.432;11.350;2023-07-30T13:49:17;2.15;;;1.27;;
47778;SDS011;33538;48.432;11.350;2023-07-30T13:51:43;1.80;;;1.20;;
47778;SDS011;33538;48.432;11.350;2023-07-30T13:54:12;1.63;;;1.17;;
47778;SDS011;33538;48.432;11.350;2023-07-30T13:56:38;1.50;;;1.10;;
47778;SDS011;33538;48.432;11.350;2023-07-30T13:59:05;3.60;;;1.33;;
47778;SDS011;33538;48.432;11.350;2023-07-30T14:01:32;1.50;;;1.10;;
47778;SDS011;33538;48.432;11.350;2023-07-30T14:03:59;1.55;;;1.00;;
47778;SDS011;33538;48.432;11.350;2023-07-30T14:06:26;1.55;;;1.10;;
47778;SDS011;33538;48.432;11.350;2023-07-30T14:08:53;1.45;;;1.10;;
47778;SDS011;33538;48.432;11.350;2023-07-30T14:11:21;1.67;;;1.27;;
47778;SDS011;33538;48.432;11.350;2023-07-30T14:13:48;3.03;;;1.40;;
47778;SDS011;33538;48.432;11.350;2023-07-30T14:16:15;3.95;;;1.30;;
47778;SDS011;33538;48.432;11.350;2023-07-30T14:18:42;1.90;;;1.20;;
47778;SDS011;33538;48.432;11.350;2023-07-30T14:21:09;4.68;;;1.40;;
47778;SDS011;33538;48.432;11.350;2023-07-30T14:23:36;3.30;;;1.17;;
47778;SDS011;33538;48.432;11.350;2023-07-30T14:26:04;2.22;;;1.17;;
47778;SDS011;33538;48.432;11.350;2023-07-30T14:28:32;3.30;;;1.48;;
47778;SDS011;33538;48.432;11.350;2023-07-30T14:30:59;1.85;;;1.27;;
47778;SDS011;33538;48.432;11.350;2023-07-30T14:33:26;1.90;;;1.08;;
47778;SDS011;33538;48.432;11.350;2023-07-30T14:35:53;1.63;;;1.10;;